Time;durP1;ratioP1;P1;durP2;ratioP2;P2;SDS_P1;SDS_P2;PMS_P1;PMS_P2;Temp;Humidity;BMP_temperature;BMP_pressure;BME280_temperature;BME280_humidity;BME280_pressure;Samples;Min_cycle;Max_cycle;Signal;HPM_P1;HPM_P2
2022/11/12 00:02:09;;;;;;;40.30;21.33;;;;;;;6.94;100.00;98268.88;5038704;28;20041;-69
2022/11/12 00:04:34;;;;;;;43.72;22.20;;;;;;;6.96;100.00;98255.75;5040887;28;20051;-70
2022/11/12 00:07:00;;;;;;;42.67;21.95;;;;;;;7.02;100.00;98260.00;5021962;28;20561;-70
2022/11/12 00:09:25;;;;;;;41.78;21.05;;;;;;;7.03;100.00;98263.53;5043962;28;20481;-68
2022/11/12 00:11:51;;;;;;;39.45;20.10;;;;;;;7.05;100.00;98266.75;5042772;28;20393;-69
2022/11/12 00:14:16;;;;;;;37.25;20.02;;;;;;;7.07;100.00;98261.78;5055625;28;20430;-69
2022/11/12 00:16:42;;;;;;;37.40;21.02;;;;;;;7.03;100.00;98268.97;5060317;28;20066;-68
2022/11/12 00:19:07;;;;;;;39.10;20.50;;;;;;;7.01;100.00;98260.31;5042589;28;20045;-68
2022/11/12 00:21:32;;;;;;;37.80;20.58;;;;;;;7.08;100.00;98255.25;5037651;28;20074;-68
2022/11/12 00:23:58;;;;;;;43.33;19.58;;;;;;;7.10;100.00;98252.22;5037883;28;20052;-70
2022/11/12 00:26:23;;;;;;;41.80;21.50;;;;;;;7.10;100.00;98249.50;5013980;28;21015;-72
2022/11/12 00:28:48;;;;;;;38.28;20.75;;;;;;;7.12;100.00;98256.22;5038172;28;20132;-70
2022/11/12 00:31:14;;;;;;;37.03;19.65;;;;;;;7.07;100.00;98250.91;5032635;28;20033;-71
2022/11/12 00:33:41;;;;;;;40.65;20.15;;;;;;;7.04;100.00;98246.03;5037986;28;20351;-71
2022/11/12 00:36:08;;;;;;;42.92;21.00;;;;;;;6.97;100.00;98248.38;5031507;28;20556;-70
2022/11/12 00:38:33;;;;;;;41.50;20.92;;;;;;;6.94;100.00;98254.47;5037905;28;20043;-69
2022/11/12 00:40:59;;;;;;;41.30;20.20;;;;;;;7.00;100.00;98240.41;5037243;28;20033;-70
2022/11/12 00:43:24;;;;;;;38.40;20.17;;;;;;;7.14;100.00;98248.56;5032648;28;20125;-70
2022/11/12 00:45:50;;;;;;;40.58;21.98;;;;;;;7.27;100.00;98238.72;5037579;28;20045;-70
2022/11/12 00:48:15;;;;;;;40.72;20.75;;;;;;;7.16;100.00;98251.78;5032267;28;20037;-70
2022/11/12 00:50:40;;;;;;;39.08;19.92;;;;;;;7.13;100.00;98254.31;5037633;28;20515;-70
2022/11/12 00:53:06;;;;;;;44.80;21.63;;;;;;;7.24;100.00;98253.00;5032570;28;20045;-70
2022/11/12 00:55:31;;;;;;;48.05;22.35;;;;;;;7.30;100.00;98253.69;5037671;28;20093;-69
2022/11/12 00:57:58;;;;;;;45.50;21.98;;;;;;;7.22;100.00;98250.56;5038950;28;20037;-69
2022/11/12 01:00:23;;;;;;;45.45;22.33;;;;;;;7.26;100.00;98262.47;5032098;28;21053;-70
2022/11/12 01:02:49;;;;;;;43.40;22.30;;;;;;;7.24;100.00;98256.53;5037545;28;20044;-70
2022/11/12 01:05:15;;;;;;;41.20;22.10;;;;;;;7.20;100.00;98251.97;5032537;28;20048;-70
2022/11/12 01:07:40;;;;;;;46.85;23.17;;;;;;;7.24;100.00;98253.00;5037913;28;20040;-70
2022/11/12 01:10:07;;;;;;;47.45;23.30;;;;;;;7.20;100.00;98251.97;5032895;28;20048;-70
2022/11/12 01:12:32;;;;;;;46.55;22.65;;;;;;;7.14;100.00;98245.84;5037182;28;20779;-69
2022/11/12 01:14:58;;;;;;;49.15;23.00;;;;;;;7.07;100.00;98245.44;5038070;28;20037;-69
2022/11/12 01:17:23;;;;;;;49.28;23.90;;;;;;;7.02;100.00;98242.81;5013942;28;20525;-70
2022/11/12 01:19:49;;;;;;;46.97;22.92;;;;;;;7.08;100.00;98245.13;5037826;28;20041;-70
2022/11/12 01:22:15;;;;;;;43.10;22.20;;;;;;;7.14;100.00;98243.09;5036458;28;20033;-70
2022/11/12 01:24:40;;;;;;;43.65;22.45;;;;;;;7.10;100.00;98241.31;5022855;28;20128;-70
2022/11/12 01:27:06;;;;;;;43.47;22.58;;;;;;;7.21;100.00;98237.25;5019103;28;20737;-70
2022/11/12 01:29:31;;;;;;;43.90;21.52;;;;;;;7.16;100.00;98227.25;5040980;28;20036;-70
2022/11/12 01:31:56;;;;;;;45.55;22.35;;;;;;;7.06;100.00;98224.78;5023089;28;20039;-71
2022/11/12 01:34:22;;;;;;;45.72;23.08;;;;;;;7.09;100.00;98218.69;5038133;28;20511;-71
2022/11/12 01:36:47;;;;;;;42.22;22.05;;;;;;;7.07;100.00;98219.00;5059277;28;20044;-72
2022/11/12 01:39:13;;;;;;;44.13;21.73;;;;;;;7.04;100.00;98222.34;5044771;28;20041;-69
2022/11/12 01:41:39;;;;;;;42.45;22.52;;;;;;;7.07;100.00;98215.47;5041660;28;20477;-69
2022/11/12 01:44:18;;;;;;;44.50;22.15;;;;;;;6.93;100.00;98223.66;5036242;28;20045;-71
2022/11/12 01:46:59;;;;;;;45.75;23.33;;;;;;;6.95;100.00;98224.19;5040470;28;20049;-70
2022/11/12 01:49:34;;;;;;;43.25;22.75;;;;;;;6.81;100.00;98224.19;5043991;28;20048;-70
2022/11/12 01:52:16;;;;;;;45.90;23.55;;;;;;;6.67;100.00;98220.69;5050829;28;20041;-70
2022/11/12 01:54:45;;;;;;;47.88;22.15;;;;;;;6.85;100.00;98222.47;5040015;28;20036;-70
2022/11/12 01:57:12;;;;;;;46.07;22.43;;;;;;;6.98;100.00;98215.38;5035349;28;20033;-70
2022/11/12 01:59:42;;;;;;;45.88;21.88;;;;;;;7.04;100.00;98226.97;5040947;28;20291;-69
2022/11/12 02:02:07;;;;;;;44.97;22.10;;;;;;;6.93;100.00;98223.66;5015519;28;20044;-70
2022/11/12 02:04:35;;;;;;;41.13;21.77;;;;;;;6.99;100.00;98219.75;5040807;28;20515;-69
2022/11/12 02:07:01;;;;;;;46.83;22.52;;;;;;;7.02;100.00;98210.13;5040197;28;20383;-71
2022/11/12 02:09:28;;;;;;;44.33;21.67;;;;;;;6.99;100.00;98218.94;5037494;28;20508;-70
2022/11/12 02:11:54;;;;;;;41.28;20.75;;;;;;;6.96;100.00;98214.09;5041132;28;20041;-71
2022/11/12 02:14:20;;;;;;;47.92;21.77;;;;;;;6.94;100.00;98216.31;5035887;28;20037;-71
2022/11/12 02:16:47;;;;;;;44.08;21.17;;;;;;;6.98;100.00;98220.84;5040126;28;20036;-71
2022/11/12 02:19:15;;;;;;;42.97;20.73;;;;;;;6.97;100.00;98223.88;5017667;28;20052;-71
2022/11/12 02:21:40;;;;;;;42.45;22.13;;;;;;;6.91;100.00;98220.44;5040901;28;20082;-71
2022/11/12 02:24:12;;;;;;;43.50;21.08;;;;;;;6.94;100.00;98217.13;5017765;28;20049;-71
2022/11/12 02:26:48;;;;;;;41.58;21.15;;;;;;;6.98;100.00;98215.38;5026605;28;20409;-71
2022/11/12 02:29:13;;;;;;;38.92;20.58;;;;;;;6.93;100.00;98210.03;5033065;28;20413;-71
2022/11/12 02:31:39;;;;;;;43.40;20.52;;;;;;;6.92;100.00;98205.72;5035093;28;20032;-70
2022/11/12 02:34:04;;;;;;;40.60;21.63;;;;;;;6.90;100.00;98202.50;5042532;28;20041;-70
2022/11/12 02:36:30;;;;;;;39.10;19.85;;;;;;;6.93;100.00;98211.97;5043095;28;20037;-70
2022/11/12 02:38:56;;;;;;;42.10;21.30;;;;;;;6.89;100.00;98214.50;5042586;28;20044;-69
2022/11/12 02:41:22;;;;;;;44.30;20.63;;;;;;;6.92;100.00;98211.19;5035818;28;20049;-70
2022/11/12 02:43:47;;;;;;;35.88;20.02;;;;;;;6.91;100.00;98206.03;5041125;28;20402;-70
2022/11/12 02:46:13;;;;;;;43.40;20.85;;;;;;;6.84;100.00;98212.72;5035624;28;20500;-70
2022/11/12 02:48:38;;;;;;;40.65;19.73;;;;;;;6.81;100.00;98204.34;5042305;28;20048;-69
2022/11/12 02:51:05;;;;;;;41.00;20.55;;;;;;;6.79;100.00;98212.81;5020286;28;20052;-71
2022/11/12 02:53:31;;;;;;;35.33;18.92;;;;;;;6.74;100.00;98204.75;5024034;28;20141;-69
2022/11/12 02:55:57;;;;;;;40.03;19.73;;;;;;;6.81;100.00;98205.13;5023603;28;20207;-69
2022/11/12 02:58:23;;;;;;;35.35;18.83;;;;;;;6.78;100.00;98204.94;5036991;28;20523;-68
2022/11/12 03:00:49;;;;;;;38.55;19.20;;;;;;;6.75;100.00;98202.81;5024528;28;20133;-69
2022/11/12 03:03:14;;;;;;;39.83;19.67;;;;;;;6.73;100.00;98203.13;5041569;28;20041;-69
2022/11/12 03:05:40;;;;;;;37.08;18.73;;;;;;;6.74;100.00;98212.13;5045465;28;20114;-68
2022/11/12 03:08:07;;;;;;;37.25;18.42;;;;;;;6.80;100.00;98208.97;5023122;28;20064;-70
2022/11/12 03:10:33;;;;;;;35.08;18.67;;;;;;;6.81;100.00;98205.13;5049003;28;20055;-69
2022/11/12 03:13:00;;;;;;;37.25;18.33;;;;;;;6.79;100.00;98211.97;5045817;28;20045;-69
2022/11/12 03:15:27;;;;;;;35.22;18.73;;;;;;;6.64;100.00;98207.66;5017631;28;20044;-70
2022/11/12 03:17:53;;;;;;;34.40;18.48;;;;;;;6.67;100.00;98210.59;5041216;28;20375;-70
2022/11/12 03:20:18;;;;;;;38.70;18.38;;;;;;;6.70;100.00;98201.81;5034367;28;20051;-70
2022/11/12 03:22:58;;;;;;;37.03;17.77;;;;;;;6.73;100.00;98197.69;5041682;28;20135;-69
2022/11/12 03:25:25;;;;;;;38.22;19.55;;;;;;;6.69;100.00;98197.47;5036089;28;20045;-70
2022/11/12 03:28:00;;;;;;;38.13;17.83;;;;;;;6.61;100.00;98192.75;5041176;28;20438;-69
2022/11/12 03:30:27;;;;;;;32.95;18.13;;;;;;;6.65;100.00;98199.19;5035312;28;20079;-69
2022/11/12 03:32:53;;;;;;;34.30;19.02;;;;;;;6.77;100.00;98195.16;5041476;28;20037;-70
2022/11/12 03:35:18;;;;;;;31.25;17.65;;;;;;;6.67;100.00;98201.63;5036199;28;20041;-69
2022/11/12 03:37:44;;;;;;;36.92;17.42;;;;;;;6.65;100.00;98201.13;5044139;28;20025;-70
2022/11/12 03:40:09;;;;;;;38.65;18.95;;;;;;;6.78;100.00;98205.75;5055123;28;20040;-69
2022/11/12 03:42:35;;;;;;;38.55;18.30;;;;;;;6.74;100.00;98204.75;5060990;28;20052;-69
2022/11/12 03:45:00;;;;;;;36.75;19.13;;;;;;;6.72;100.00;98204.25;5023720;28;20074;-69
2022/11/12 03:47:25;;;;;;;37.35;18.17;;;;;;;6.70;100.00;98207.28;5034599;28;20053;-69
2022/11/12 03:49:51;;;;;;;36.25;18.23;;;;;;;6.68;100.00;98208.66;5038918;28;20032;-69
2022/11/12 03:52:16;;;;;;;38.25;18.42;;;;;;;6.68;100.00;98214.13;5035848;28;20045;-70
2022/11/12 03:54:41;;;;;;;38.30;19.02;;;;;;;6.74;100.00;98212.91;5040706;28;20048;-69
2022/11/12 03:57:07;;;;;;;38.00;19.38;;;;;;;6.69;100.00;98221.97;5016236;28;20048;-70
2022/11/12 03:59:32;;;;;;;35.85;18.77;;;;;;;6.56;100.00;98222.00;5022978;28;20036;-68
2022/11/12 04:01:58;;;;;;;38.53;18.20;;;;;;;6.58;100.00;98220.59;5040254;28;20084;-68
2022/11/12 04:08:34;;;;;;;42.30;19.75;;;;;;;6.68;100.00;98214.13;5036406;28;20530;-68
2022/11/12 04:09:52;;;;;;;41.60;19.42;;;;;;;6.62;100.00;98197.09;5046189;28;20033;-70
2022/11/12 04:15:02;;;;;;;40.35;20.13;;;;;;;6.76;100.00;98188.91;5055685;28;20037;-70
2022/11/12 04:22:56;;;;;;;48.72;21.23;;;;;;;6.88;100.00;98172.84;5061130;28;20067;-70
2022/11/12 04:28:05;;;;;;;46.28;20.25;;;;;;;6.93;100.00;98168.38;5050373;28;20434;-70
2022/11/12 04:30:30;;;;;;;43.00;20.55;;;;;;;6.87;100.00;98165.78;5038173;28;20079;-70
2022/11/12 04:32:57;;;;;;;46.58;21.15;;;;;;;6.79;100.00;98173.84;5022229;28;20490;-68
2022/11/12 04:35:25;;;;;;;48.50;21.23;;;;;;;6.68;100.00;98173.28;5034821;28;21071;-69
2022/11/12 04:37:51;;;;;;;50.20;21.88;;;;;;;6.66;100.00;98172.78;5040104;28;20119;-68
2022/11/12 04:45:51;;;;;;;39.53;19.65;;;;;;;6.89;100.00;98179.88;5039278;28;20135;-69
2022/11/12 04:48:18;;;;;;;45.67;20.65;;;;;;;6.98;100.00;98176.44;5033353;28;20052;-69
2022/11/12 04:50:46;;;;;;;42.38;19.85;;;;;;;6.99;100.00;98164.47;5040172;28;20059;-69
2022/11/12 04:53:13;;;;;;;43.05;20.73;;;;;;;7.01;100.00;98168.47;5016734;28;20033;-69
2022/11/12 04:55:38;;;;;;;44.97;20.42;;;;;;;7.02;100.00;98172.00;5043068;28;20119;-70
2022/11/12 04:58:04;;;;;;;44.05;20.92;;;;;;;6.99;100.00;98169.91;5039753;28;20135;-68
2022/11/12 05:00:30;;;;;;;43.67;20.48;;;;;;;7.00;100.00;98166.06;5054159;28;20037;-69
2022/11/12 05:02:56;;;;;;;41.08;19.27;;;;;;;7.03;100.00;98171.69;5056359;28;20040;-69
2022/11/12 05:05:21;;;;;;;44.13;19.50;;;;;;;7.09;100.00;98177.81;5045046;28;20041;-69
2022/11/12 05:07:47;;;;;;;43.38;21.00;;;;;;;7.04;100.00;98176.03;5047991;28;20131;-68
2022/11/12 05:10:12;;;;;;;41.70;20.42;;;;;;;7.00;100.00;98166.84;5039069;28;20045;-68
2022/11/12 05:12:38;;;;;;;46.05;20.02;;;;;;;7.07;100.00;98167.22;5044302;28;20580;-68
2022/11/12 05:15:04;;;;;;;39.42;19.85;;;;;;;7.04;100.00;98170.59;5040652;28;20040;-68
2022/11/12 05:17:30;;;;;;;40.03;18.60;;;;;;;7.01;100.00;98173.91;5043369;28;20043;-68
2022/11/12 05:19:55;;;;;;;41.60;19.77;;;;;;;7.01;100.00;98170.41;5046050;28;20036;-68
2022/11/12 05:22:20;;;;;;;39.08;18.90;;;;;;;7.01;100.00;98176.66;5060626;28;20048;-68
2022/11/12 05:24:46;;;;;;;40.95;19.15;;;;;;;7.07;100.00;98180.84;5069955;28;20040;-68
2022/11/12 05:27:17;;;;;;;39.10;19.73;;;;;;;7.09;100.00;98186.00;5058062;28;20371;-68
2022/11/12 05:29:43;;;;;;;41.65;20.40;;;;;;;7.02;100.00;98185.63;5053893;28;20045;-68
2022/11/12 05:32:10;;;;;;;42.08;19.88;;;;;;;6.95;100.00;98179.78;5030075;28;20055;-69
2022/11/12 05:34:36;;;;;;;40.08;20.33;;;;;;;6.94;100.00;98181.72;5025929;28;20077;-69
2022/11/12 05:37:02;;;;;;;39.75;19.58;;;;;;;6.94;100.00;98176.25;5043529;28;20033;-69
2022/11/12 05:39:28;;;;;;;44.25;20.20;;;;;;;6.96;100.00;98174.03;5041278;28;20037;-68
2022/11/12 05:41:54;;;;;;;39.30;20.05;;;;;;;6.95;100.00;98183.34;5042655;28;20148;-69
2022/11/12 05:44:19;;;;;;;45.15;20.85;;;;;;;6.87;100.00;98184.84;5038495;28;20041;-69
2022/11/12 05:46:45;;;;;;;45.08;20.60;;;;;;;6.99;100.00;98178.88;5046673;28;20049;-69
2022/11/12 05:49:11;;;;;;;42.92;20.52;;;;;;;7.02;100.00;98181.00;5039973;28;20103;-69
2022/11/12 05:51:36;;;;;;;45.33;21.08;;;;;;;7.09;100.00;98177.81;5025897;28;20041;-69
2022/11/12 05:54:02;;;;;;;44.35;21.58;;;;;;;7.02;100.00;98174.72;5025684;28;20050;-69
2022/11/12 05:56:28;;;;;;;52.67;23.27;;;;;;;7.00;100.00;98171.50;5039877;28;20045;-69
2022/11/12 05:58:53;;;;;;;50.70;21.92;;;;;;;6.98;100.00;98173.72;5043573;28;20075;-69
2022/11/12 06:01:19;;;;;;;50.45;22.08;;;;;;;6.87;100.00;98173.94;5038295;28;20037;-70
2022/11/12 06:03:44;;;;;;;47.47;21.90;;;;;;;6.92;100.00;98178.50;5042622;28;20072;-69
2022/11/12 06:06:10;;;;;;;49.55;22.75;;;;;;;6.70;100.00;98190.94;5016662;28;20040;-69
2022/11/12 06:08:35;;;;;;;46.72;22.58;;;;;;;6.47;100.00;98192.75;5043222;28;20474;-70
2022/11/12 06:11:01;;;;;;;54.70;23.52;;;;;;;6.38;100.00;98193.78;5043509;28;20045;-71
2022/11/12 06:13:26;;;;;;;53.63;22.90;;;;;;;6.30;100.00;98187.09;5038057;28;20428;-70
2022/11/12 06:15:53;;;;;;;57.30;25.00;;;;;;;6.25;100.00;98188.03;5024522;28;20060;-70
2022/11/12 06:18:19;;;;;;;52.30;22.63;;;;;;;6.38;100.00;98172.81;5037532;28;20063;-70
2022/11/12 06:21:18;;;;;;;55.42;25.67;;;;;;;6.23;100.00;98192.97;5042803;28;20041;-68
2022/11/12 06:23:30;;;;;;;54.58;25.30;;;;;;;6.08;100.00;98196.75;5042908;28;20067;-69
2022/11/12 06:25:55;;;;;;;69.82;28.08;;;;;;;6.06;100.00;98198.19;5041165;28;20045;-69
2022/11/12 06:28:21;;;;;;;72.63;27.17;;;;;;;6.03;100.00;98204.22;5036940;28;20053;-68
2022/11/12 06:30:46;;;;;;;67.97;27.25;;;;;;;6.17;100.00;98191.44;5038954;28;20029;-69
2022/11/12 06:33:12;;;;;;;63.17;27.13;;;;;;;6.30;100.00;98201.53;5036660;28;20045;-68
2022/11/12 06:35:37;;;;;;;63.72;26.70;;;;;;;6.47;100.00;98198.19;5042062;28;20503;-69
2022/11/12 06:38:02;;;;;;;56.70;24.67;;;;;;;6.64;100.00;98202.22;5040979;28;20041;-69
2022/11/12 06:40:28;;;;;;;55.40;24.45;;;;;;;6.73;100.00;98202.31;5021318;28;20045;-70
2022/11/12 06:42:57;;;;;;;53.15;21.33;;;;;;;6.82;100.00;98204.00;5025265;28;20038;-69
2022/11/12 06:45:26;;;;;;;59.55;25.50;;;;;;;7.03;100.00;98196.22;5024292;28;20529;-70
2022/11/12 06:47:51;;;;;;;57.15;23.95;;;;;;;7.14;100.00;98190.53;5054787;28;20041;-70
2022/11/12 06:50:16;;;;;;;56.17;24.77;;;;;;;7.19;100.00;98196.69;5038949;28;20103;-69
2022/11/12 06:52:42;;;;;;;51.08;25.27;;;;;;;7.26;100.00;98197.06;5034164;28;20052;-68
2022/11/12 06:55:08;;;;;;;54.17;25.95;;;;;;;7.36;100.00;98189.75;5018113;28;20145;-68
2022/11/12 06:57:34;;;;;;;56.45;25.95;;;;;;;7.42;100.00;98185.81;5041404;28;20931;-68
2022/11/12 07:00:00;;;;;;;51.17;24.70;;;;;;;7.51;100.00;98191.28;5024638;28;20055;-68
2022/11/12 07:02:26;;;;;;;48.70;23.23;;;;;;;7.52;100.00;98191.00;5036352;28;20080;-69
2022/11/12 07:04:52;;;;;;;47.05;21.92;;;;;;;7.60;100.00;98192.19;5017050;28;20138;-70
2022/11/12 07:07:17;;;;;;;46.58;21.25;;;;;;;7.57;100.00;98198.25;5035392;28;20490;-68
2022/11/12 07:09:42;;;;;;;48.47;22.30;;;;;;;7.56;100.00;98186.56;5020922;28;20033;-69
2022/11/12 07:12:08;;;;;;;49.90;23.27;;;;;;;7.57;100.00;98184.63;5006771;28;20060;-69
2022/11/12 07:14:33;;;;;;;47.83;23.60;;;;;;;7.58;100.00;98186.22;5014233;28;20088;-69
2022/11/12 07:16:59;;;;;;;44.25;22.48;;;;;;;7.57;100.00;98187.34;5055633;28;20065;-69
2022/11/12 07:19:25;;;;;;;50.95;23.27;;;;;;;7.65;100.00;98184.69;5053433;28;20363;-69
2022/11/12 07:21:50;;;;;;;45.67;22.02;;;;;;;7.71;100.00;98181.84;5055046;28;20045;-69
2022/11/12 07:24:15;;;;;;;48.53;23.65;;;;;;;7.76;100.00;98179.78;5034756;28;20044;-69
2022/11/12 07:26:41;;;;;;;47.92;22.83;;;;;;;7.88;100.00;98178.38;5042753;28;20136;-68
2022/11/12 07:29:07;;;;;;;47.38;23.35;;;;;;;7.89;100.00;98174.56;5038997;28;20139;-70
2022/11/12 07:31:38;;;;;;;45.78;23.85;;;;;;;7.86;100.00;98178.69;5022355;28;20037;-70
2022/11/12 07:34:04;;;;;;;49.72;23.73;;;;;;;7.87;100.00;98179.50;5050774;28;20165;-68
2022/11/12 07:36:29;;;;;;;49.65;23.00;;;;;;;7.87;100.00;98185.78;5052696;28;20037;-69
2022/11/12 07:38:55;;;;;;;47.90;22.52;;;;;;;7.87;100.00;98188.50;5032696;28;20037;-69
2022/11/12 07:41:22;;;;;;;44.80;23.05;;;;;;;7.96;100.00;98192.09;5040133;28;20486;-69
2022/11/12 07:43:50;;;;;;;45.83;22.63;;;;;;;8.00;100.00;98192.25;5042642;28;20538;-68
2022/11/12 07:46:24;;;;;;;47.38;23.13;;;;;;;8.00;100.00;98192.25;5035690;28;20051;-70
2022/11/12 07:48:50;;;;;;;44.85;22.27;;;;;;;8.03;100.00;98197.91;5022721;28;20030;-68
2022/11/12 07:51:24;;;;;;;45.38;22.83;;;;;;;8.06;100.00;98193.72;5046508;28;20051;-68
2022/11/12 07:53:52;;;;;;;48.35;24.27;;;;;;;8.04;100.00;98193.25;5040680;28;20033;-69
2022/11/12 07:56:20;;;;;;;49.83;24.52;;;;;;;8.02;100.00;98195.47;5035415;28;20033;-68
2022/11/12 07:58:46;;;;;;;51.45;24.33;;;;;;;7.98;100.00;98180.84;5023824;28;20044;-68
2022/11/12 08:01:21;;;;;;;48.15;22.20;;;;;;;7.96;100.00;98189.34;5035464;28;20041;-68
2022/11/12 08:03:46;;;;;;;45.03;22.58;;;;;;;8.04;100.00;98182.31;5040965;28;20041;-68
2022/11/12 08:06:11;;;;;;;50.53;23.90;;;;;;;8.16;100.00;98179.03;5032011;28;20102;-67
2022/11/12 08:08:37;;;;;;;46.10;22.50;;;;;;;8.18;100.00;98184.97;5041379;28;20382;-68
2022/11/12 08:11:02;;;;;;;46.22;23.15;;;;;;;8.18;100.00;98182.22;5038599;28;20502;-67
2022/11/12 08:13:28;;;;;;;50.53;24.25;;;;;;;8.15;100.00;98186.38;5038552;28;20041;-68
2022/11/12 08:15:57;;;;;;;46.35;23.30;;;;;;;8.13;100.00;98196.81;5047393;28;20043;-68
2022/11/12 08:18:23;;;;;;;53.50;24.48;;;;;;;7.99;100.00;98188.72;5043529;28;20533;-69
2022/11/12 08:20:48;;;;;;;54.53;25.10;;;;;;;8.15;100.00;98205.47;5041732;28;20607;-68
2022/11/12 08:23:13;;;;;;;49.80;23.88;;;;;;;8.17;100.00;98194.25;5037437;28;20401;-68
2022/11/12 08:25:39;;;;;;;44.33;23.63;;;;;;;7.83;100.00;98195.69;5040195;28;20037;-68
2022/11/12 08:28:04;;;;;;;47.75;25.00;;;;;;;7.55;100.00;98201.28;5035240;28;20114;-69
2022/11/12 08:30:29;;;;;;;50.53;25.83;;;;;;;7.46;100.00;98197.69;5039713;28;20083;-68
2022/11/12 08:33:00;;;;;;;51.08;25.58;;;;;;;7.65;100.00;98192.88;5038757;28;20033;-68
2022/11/12 08:35:27;;;;;;;52.58;28.63;;;;;;;7.34;100.00;98195.50;5034177;28;20048;-69
2022/11/12 08:38:01;;;;;;;49.63;24.05;;;;;;;7.25;100.00;98202.81;5045149;28;20033;-68
2022/11/12 08:40:28;;;;;;;53.97;26.45;;;;;;;7.10;100.00;98209.41;5034786;28;20048;-68
2022/11/12 08:42:57;;;;;;;57.83;28.73;;;;;;;6.96;100.00;98208.66;5022440;28;20641;-68
2022/11/12 08:45:23;;;;;;;55.10;25.90;;;;;;;7.04;100.00;98200.56;5035207;28;20521;-70
2022/11/12 08:47:48;;;;;;;56.60;26.15;;;;;;;6.96;100.00;98209.44;5040070;28;20075;-70
2022/11/12 08:50:14;;;;;;;52.33;26.05;;;;;;;7.26;100.00;98202.50;5035029;28;20456;-69
2022/11/12 08:52:39;;;;;;;51.85;26.35;;;;;;;7.51;100.00;98202.19;5039621;28;20055;-69
2022/11/12 08:55:05;;;;;;;48.40;24.08;;;;;;;7.85;100.00;98193.47;5017203;28;20052;-70
2022/11/12 08:57:30;;;;;;;47.05;23.08;;;;;;;7.74;100.00;98190.19;5021472;28;20064;-69
2022/11/12 08:59:56;;;;;;;41.95;21.38;;;;;;;7.99;100.00;98199.63;5040220;28;20041;-68
2022/11/12 09:02:21;;;;;;;45.97;23.55;;;;;;;8.11;100.00;98206.44;5035124;28;21402;-70
2022/11/12 09:04:46;;;;;;;49.33;24.13;;;;;;;7.85;100.00;98201.66;5022173;28;20099;-70
2022/11/12 09:07:12;;;;;;;45.85;21.85;;;;;;;8.03;100.00;98207.97;5034379;28;20053;-68
2022/11/12 09:09:37;;;;;;;42.88;22.25;;;;;;;8.04;100.00;98201.41;5040945;28;20049;-68
2022/11/12 09:12:03;;;;;;;44.38;22.33;;;;;;;7.90;100.00;98198.78;5037411;28;20406;-69
2022/11/12 09:14:29;;;;;;;43.83;22.15;;;;;;;7.93;100.00;98200.09;5038824;28;20044;-67
2022/11/12 09:16:54;;;;;;;51.25;22.40;;;;;;;7.96;100.00;98208.44;5039842;28;20037;-70
2022/11/12 09:19:19;;;;;;;44.20;22.52;;;;;;;8.13;100.00;98206.94;5035098;28;20124;-68
2022/11/12 09:21:45;;;;;;;46.47;22.27;;;;;;;8.24;100.00;98203.59;5040546;28;20048;-68
2022/11/12 09:24:10;;;;;;;44.72;23.23;;;;;;;8.00;100.00;98205.91;5017905;28;20060;-68
2022/11/12 09:26:35;;;;;;;43.67;22.42;;;;;;;8.08;100.00;98207.06;5039823;28;20045;-68
2022/11/12 09:29:01;;;;;;;43.22;21.67;;;;;;;8.31;100.00;98196.91;5040517;28;20068;-68
2022/11/12 09:31:26;;;;;;;44.90;21.42;;;;;;;8.30;100.00;98196.09;5034950;28;20048;-67
2022/11/12 09:33:52;;;;;;;42.33;22.48;;;;;;;7.82;100.00;98205.00;5039900;28;20041;-68
2022/11/12 09:36:17;;;;;;;39.00;21.85;;;;;;;7.59;100.00;98205.00;5034192;28;20069;-68
2022/11/12 09:38:42;;;;;;;43.20;23.40;;;;;;;7.74;100.00;98203.84;5039558;28;20052;-68
2022/11/12 09:41:25;;;;;;;45.95;23.30;;;;;;;7.59;100.00;98202.28;5017203;28;20037;-67
2022/11/12 09:43:55;;;;;;;45.00;22.83;;;;;;;7.32;100.00;98205.91;5043489;28;20048;-68
2022/11/12 09:46:33;;;;;;;;;;;;;;;7.11;100.00;98208.28;5042017;28;20052;-68
2022/11/12 09:49:22;;;;;;;48.25;23.48;;;;;;;7.13;100.00;98206.09;5052426;28;19921;-67
2022/11/12 09:52:01;;;;;;;48.45;23.77;;;;;;;7.47;100.00;98207.47;5042063;28;20116;-68
2022/11/12 09:54:31;;;;;;;53.15;24.25;;;;;;;7.48;100.00;98211.81;5022029;28;20045;-67
2022/11/12 09:56:57;;;;;;;46.97;24.33;;;;;;;7.58;100.00;98208.84;5057977;28;20037;-67
2022/11/12 09:59:27;;;;;;;49.63;23.88;;;;;;;7.64;100.00;98207.59;5040846;28;20048;-68
2022/11/12 10:01:58;;;;;;;;;;;;;;;7.30;100.00;98204.63;5026283;28;20406;-68
2022/11/12 10:04:26;;;;;;;44.83;22.45;;;;;;;7.31;100.00;98193.41;5038461;28;20868;-67
2022/11/12 10:07:34;;;;;;;49.63;24.38;;;;;;;7.42;100.00;98197.50;5043132;28;20052;-68
2022/11/12 10:10:07;;;;;;;55.20;24.88;;;;;;;7.23;100.00;98189.50;5053794;28;20076;-68
2022/11/12 10:12:58;;;;;;;54.88;25.30;;;;;;;7.13;100.00;98181.56;5052969;28;20482;-68
2022/11/12 10:18:46;;;;;;;50.80;24.47;;;;;;;7.08;100.00;98190.66;5043501;28;20127;-68
2022/11/12 10:21:23;;;;;;;38.42;18.90;;;;;;;7.19;100.00;98184.97;5038240;28;20152;-69
2022/11/12 10:23:52;;;;;;;50.10;25.60;;;;;;;7.12;100.00;98187.31;5042986;28;20056;-68
2022/11/12 10:26:24;;;;;;;57.80;27.20;;;;;;;6.99;100.00;98184.31;5041248;28;20033;-68
2022/11/12 10:29:17;;;;;;;53.63;26.02;;;;;;;7.01;100.00;98184.03;5042189;28;20060;-68
2022/11/12 10:31:42;;;;;;;54.88;27.15;;;;;;;7.05;100.00;98169.47;5027352;28;20044;-68
2022/11/12 10:34:18;;;;;;;56.88;25.92;;;;;;;7.11;100.00;98170.16;5037802;28;20041;-68
2022/11/12 10:36:55;;;;;;;56.63;26.45;;;;;;;7.05;100.00;98169.47;5055657;28;20038;-68
2022/11/12 10:39:33;;;;;;;54.13;26.50;;;;;;;6.95;100.00;98169.72;5057489;28;20047;-68
2022/11/12 10:42:07;;;;;;;54.97;26.17;;;;;;;7.40;100.00;98163.47;5041692;28;20378;-69
2022/11/12 10:44:32;;;;;;;47.65;24.65;;;;;;;7.50;100.00;98155.06;5042698;28;20037;-68
2022/11/12 10:47:29;;;;;;;54.83;25.17;;;;;;;7.71;100.00;98154.56;5041225;28;20071;-68
2022/11/12 10:50:45;;;;;;;49.55;24.23;;;;;;;7.89;100.00;98144.53;5042273;28;20033;-69
2022/11/12 10:53:11;;;;;;;51.92;24.33;;;;;;;7.62;100.00;98144.41;4991302;28;20786;-68
2022/11/12 10:55:55;;;;;;;54.38;27.17;;;;;;;7.32;100.00;98148.69;5041747;28;20148;-66
2022/11/12 10:58:20;;;;;;;55.28;26.83;;;;;;;7.43;100.00;98141.84;5019503;28;20039;-69
2022/11/12 11:01:13;;;;;;;56.60;27.52;;;;;;;7.26;100.00;98150.72;5043709;28;20041;-69
2022/11/12 11:03:54;;;;;;;49.17;24.58;;;;;;;7.00;100.00;98142.34;5042147;28;20648;-69
2022/11/12 11:06:24;;;;;;;73.53;35.53;;;;;;;6.89;100.00;98144.47;5036242;28;20079;-69
2022/11/12 11:08:51;;;;;;;;;;;;;;;6.98;100.00;98143.75;5042910;28;20040;-69
2022/11/12 11:11:24;;;;;;;62.95;29.98;;;;;;;7.24;100.00;98141.25;5037382;28;20019;-68
2022/11/12 11:13:55;;;;;;;51.72;25.63;;;;;;;7.14;100.00;98133.31;5042718;28;20048;-69
2022/11/12 11:16:23;;;;;;;66.93;35.83;;;;;;;7.21;100.00;98137.22;5018324;28;20037;-68
2022/11/12 11:18:58;;;;;;;54.28;26.58;;;;;;;7.23;100.00;98134.97;5026566;28;20041;-69
2022/11/12 11:21:49;;;;;;;59.58;27.25;;;;;;;7.41;100.00;98133.19;5036935;28;20049;-69
2022/11/12 11:24:20;;;;;;;50.97;25.23;;;;;;;7.60;100.00;98130.28;5021965;28;20045;-68
2022/11/12 11:27:07;;;;;;;48.85;25.02;;;;;;;7.84;100.00;98129.09;5035209;28;20051;-68
2022/11/12 11:29:46;;;;;;;48.40;24.00;;;;;;;7.90;100.00;98127.03;5058802;28;20044;-67
2022/11/12 11:32:30;;;;;;;51.67;24.67;;;;;;;7.65;100.00;98121.13;5055274;28;20045;-68
2022/11/12 11:35:12;;;;;;;47.92;23.52;;;;;;;7.97;100.00;98128.19;5017685;28;20283;-68
2022/11/12 11:37:50;;;;;;;49.70;25.92;;;;;;;7.87;100.00;98114.84;5041193;28;20545;-68
2022/11/12 11:40:34;;;;;;;51.05;25.27;;;;;;;7.39;100.00;98121.78;5037168;28;20075;-67
2022/11/12 11:43:21;;;;;;;55.78;26.17;;;;;;;7.37;100.00;98118.56;5023219;28;20037;-68
2022/11/12 11:45:59;;;;;;;49.38;25.38;;;;;;;7.32;100.00;98110.53;5040436;28;20737;-68